Time;durP1;ratioP1;P1;durP2;ratioP2;P2;SDS_P1;SDS_P2;PMS_P1;PMS_P2;Temp;Humidity;BMP_temperature;BMP_pressure;BME280_temperature;BME280_humidity;BME280_pressure;Samples;Min_cycle;Max_cycle;Signal;HPM_P1;HPM_P2
2023/05/19 00:05:58;;;;;;;16.50;8.70;;;;;;;8.25;100.00;99953.66;273871;1266;25360;-90
2023/05/19 00:12:00;;;;;;;12.80;8.10;;;;;;;8.21;100.00;99958.69;270755;1267;23015;-90
2023/05/19 00:18:01;;;;;;;18.30;10.00;;;;;;;8.22;100.00;99955.41;273999;1266;22789;-90
2023/05/19 00:24:03;;;;;;;18.60;9.90;;;;;;;8.20;100.00;99952.08;274006;1266;22187;-91
2023/05/19 00:30:05;;;;;;;15.60;9.30;;;;;;;8.21;100.00;99947.95;273894;1266;23135;-90
2023/05/19 00:36:07;;;;;;;20.70;10.80;;;;;;;8.22;100.00;99940.45;273853;1266;22417;-91
2023/05/19 00:42:09;;;;;;;18.60;9.80;;;;;;;8.21;100.00;99937.92;273945;1267;22400;-90
2023/05/19 00:48:10;;;;;;;22.60;12.00;;;;;;;8.22;100.00;99937.35;272366;1266;23966;-90
2023/05/19 01:01:31;;;;;;;21.70;13.30;;;;;;;8.20;100.00;99933.20;271930;1262;22223;-91
2023/05/19 01:07:32;;;;;;;21.20;12.40;;;;;;;8.22;100.00;99931.96;273915;1264;23543;-91
2023/05/19 01:13:34;;;;;;;32.30;12.40;;;;;;;8.23;100.00;99932.73;272908;1267;23220;-90
2023/05/19 01:20:17;;;;;;;24.20;13.80;;;;;;;8.21;100.00;99937.00;271410;1264;22563;-92
2023/05/19 01:26:46;;;;;;;19.30;12.40;;;;;;;8.19;100.00;99932.79;273651;1266;22394;-90
2023/05/19 01:40:06;;;;;;;;;;;;;;;8.21;100.00;99916.32;274055;1266;23740;-90
2023/05/19 01:46:08;;;;;;;15.50;8.30;;;;;;;8.21;100.00;99912.88;274011;1265;22412;-91
2023/05/19 01:52:10;;;;;;;12.70;7.30;;;;;;;8.18;100.00;99909.05;271116;1267;22533;-91
2023/05/19 01:58:18;;;;;;;11.00;7.30;;;;;;;8.16;100.00;99907.34;271583;1266;22393;-90
2023/05/19 02:04:38;;;;;;;12.60;7.00;;;;;;;8.14;100.00;99912.73;272590;1266;22184;-91
2023/05/19 02:10:42;;;;;;;10.00;7.30;;;;;;;8.13;100.00;99904.14;273891;1266;22450;-91
2023/05/19 02:16:49;;;;;;;14.50;8.60;;;;;;;8.16;100.00;99902.98;273994;1266;22198;-90
2023/05/19 02:22:55;;;;;;;15.50;9.40;;;;;;;8.18;100.00;99906.02;273976;1266;22429;-91
2023/05/19 02:28:57;;;;;;;13.10;8.60;;;;;;;8.21;100.00;99904.87;272915;1266;22800;-91
2023/05/19 02:35:00;;;;;;;14.50;8.70;;;;;;;8.22;100.00;99897.23;273779;1250;22421;-91
2023/05/19 02:41:39;;;;;;;12.00;8.40;;;;;;;8.22;100.00;99899.22;272577;1267;23517;-91
2023/05/19 02:47:40;;;;;;;14.80;9.60;;;;;;;8.25;100.00;99898.89;273419;1266;22630;-92
2023/05/19 02:53:44;;;;;;;14.70;9.60;;;;;;;8.23;100.00;99892.64;273766;1270;23911;-90
2023/05/19 03:08:11;;;;;;;16.20;10.10;;;;;;;8.16;100.00;99900.43;274266;1266;22425;-92
2023/05/19 03:14:15;;;;;;;16.50;9.70;;;;;;;8.13;100.00;99904.54;273842;1266;22543;-91
2023/05/19 03:28:16;;;;;;;17.70;8.90;;;;;;;8.15;100.00;99895.08;274187;1266;22352;-91
2023/05/19 03:43:02;;;;;;;11.70;8.00;;;;;;;8.20;100.00;99891.81;274503;1267;22270;-89
2023/05/19 03:49:29;;;;;;;20.90;10.20;;;;;;;8.25;100.00;99899.11;272909;1257;23447;-90
2023/05/19 04:11:38;;;;;;;21.40;12.20;;;;;;;8.25;100.00;99904.20;274315;1266;22426;-90
2023/05/19 04:25:27;;;;;;;24.60;12.60;;;;;;;8.34;100.00;99908.20;272622;1266;23481;-90
2023/05/19 04:40:22;;;;;;;28.80;13.20;;;;;;;8.40;100.00;99902.63;271940;1272;22572;-89
2023/05/19 04:47:51;;;;;;;27.60;12.90;;;;;;;8.46;100.00;99903.59;271080;1266;22934;-90
2023/05/19 04:53:56;;;;;;;26.40;13.20;;;;;;;8.49;100.00;99904.27;274111;1266;22504;-89
2023/05/19 05:07:15;;;;;;;27.40;11.70;;;;;;;8.55;100.00;99897.67;272484;1267;22422;-89
2023/05/19 05:13:26;;;;;;;22.50;12.00;;;;;;;8.65;100.00;99898.23;273373;1266;22561;-90
2023/05/19 05:19:29;;;;;;;22.00;10.20;;;;;;;8.74;100.00;99902.43;272243;1266;22426;-90
2023/05/19 05:25:43;;;;;;;22.30;10.80;;;;;;;8.81;100.00;99903.83;272910;1266;22412;-90
2023/05/19 05:31:47;;;;;;;24.30;10.30;;;;;;;8.90;100.00;99906.30;273434;1266;22493;-90
2023/05/19 05:45:07;;;;;;;17.30;9.10;;;;;;;9.06;100.00;99914.54;273826;1266;22419;-88
2023/05/19 05:51:13;;;;;;;15.50;9.10;;;;;;;9.15;100.00;99908.90;272978;1266;23050;-88
2023/05/19 05:58:10;;;;;;;16.50;8.80;;;;;;;9.24;100.00;99916.20;271242;1273;22531;-90
2023/05/19 06:04:16;;;;;;;23.60;10.40;;;;;;;9.37;100.00;99920.91;271766;1265;22269;-89
2023/05/19 06:11:14;;;;;;;24.40;11.00;;;;;;;9.52;100.00;99922.14;271771;1266;22544;-89
2023/05/19 06:17:16;;;;;;;18.80;10.20;;;;;;;9.64;100.00;99928.36;272585;1267;22557;-88
2023/05/19 06:39:01;;;;;;;19.60;10.30;;;;;;;9.80;100.00;99936.02;271994;1266;22553;-87
2023/05/19 06:53:05;;;;;;;21.40;10.20;;;;;;;9.86;100.00;99940.14;271320;1267;22506;-89
2023/05/19 07:07:01;;;;;;;15.60;10.30;;;;;;;9.89;100.00;99938.45;272981;1266;23095;-90
2023/05/19 07:20:22;;;;;;;16.90;9.20;;;;;;;9.97;100.00;99944.70;274042;1266;22310;-88
2023/05/19 07:34:23;;;;;;;23.00;10.90;;;;;;;10.13;100.00;99939.39;274286;1267;22530;-89
2023/05/19 07:40:25;;;;;;;16.10;9.70;;;;;;;10.21;100.00;99937.48;274013;1270;22364;-88
2023/05/19 07:54:50;;;;;;;16.80;9.40;;;;;;;10.39;100.00;99941.77;273332;1267;23098;-89
2023/05/19 08:00:57;;;;;;;18.50;10.40;;;;;;;10.47;100.00;99938.60;272246;1266;23141;-91
2023/05/19 08:06:58;;;;;;;20.80;11.70;;;;;;;10.48;100.00;99938.94;273262;1265;22550;-88
2023/05/19 08:13:00;;;;;;;20.90;12.10;;;;;;;10.46;100.00;99931.45;274035;1266;22321;-89
2023/05/19 08:19:03;;;;;;;18.10;10.40;;;;;;;10.55;100.00;99928.65;272914;1267;22633;-89
2023/05/19 08:25:31;;;;;;;20.00;9.50;;;;;;;10.72;100.00;99930.25;274056;1272;22477;-90
2023/05/19 08:39:34;;;;;;;16.30;9.30;;;;;;;10.79;100.00;99934.91;271680;1266;24249;-89
2023/05/19 08:45:37;;;;;;;14.10;9.30;;;;;;;10.79;100.00;99936.61;271100;1267;23672;-88
2023/05/19 08:52:00;;;;;;;16.10;9.00;;;;;;;10.84;100.00;99939.39;272477;1266;22603;-89
2023/05/19 08:58:03;;;;;;;15.90;9.20;;;;;;;10.88;100.00;99944.59;273136;1266;24307;-90
2023/05/19 09:35:06;;;;;;;13.10;8.70;;;;;;;11.05;100.00;99954.16;274378;1270;22189;-91
2023/05/19 09:41:09;;;;;;;12.60;8.70;;;;;;;11.21;100.00;99952.52;273883;1266;22770;-89
2023/05/19 09:47:15;;;;;;;13.70;8.90;;;;;;;11.42;100.00;99944.69;273735;1266;22232;-90
2023/05/19 09:53:17;;;;;;;12.80;9.10;;;;;;;11.47;100.00;99944.58;272384;1266;522384;-89
2023/05/19 09:59:21;;;;;;;14.80;8.30;;;;;;;11.48;100.00;99949.86;273707;1266;22363;-90
2023/05/19 10:05:26;;;;;;;14.90;8.00;;;;;;;11.47;100.00;99949.60;273502;1266;23746;-90
2023/05/19 10:11:29;;;;;;;14.70;8.00;;;;;;;11.53;100.00;99951.52;273677;1269;22401;-88
2023/05/19 10:17:31;;;;;;;12.40;7.60;;;;;;;11.57;100.00;99946.30;270843;1269;23776;-90
2023/05/19 10:23:33;;;;;;;11.80;8.30;;;;;;;11.57;100.00;99944.17;272426;1266;22213;-90
2023/05/19 10:29:37;;;;;;;12.70;8.40;;;;;;;11.57;100.00;99940.36;271524;1266;22375;-90
2023/05/19 10:35:49;;;;;;;11.00;8.10;;;;;;;11.62;100.00;99939.05;271539;1250;22541;-90
2023/05/19 10:42:08;;;;;;;11.40;7.90;;;;;;;11.76;100.00;99941.11;273123;1266;22968;-89
2023/05/19 10:48:15;;;;;;;12.30;8.00;;;;;;;11.80;100.00;99939.14;270937;1269;22562;-89
2023/05/19 10:54:17;;;;;;;13.20;7.30;;;;;;;11.80;100.00;99934.98;270708;1267;24507;-89
2023/05/19 11:00:29;;;;;;;9.90;7.10;;;;;;;11.85;100.00;99936.29;270740;1270;22328;-88
2023/05/19 11:06:36;;;;;;;12.60;8.30;;;;;;;11.94;100.00;99938.10;272001;1266;22317;-88
2023/05/19 11:12:42;;;;;;;12.50;8.70;;;;;;;12.08;100.00;99936.73;270895;1269;22487;-88
2023/05/19 11:18:47;;;;;;;14.30;8.70;;;;;;;12.17;100.00;99939.91;271079;1266;24605;-89
2023/05/19 11:24:51;;;;;;;14.20;8.80;;;;;;;12.17;100.00;99937.95;270491;1270;22534;-89
2023/05/19 11:30:56;;;;;;;13.30;7.90;;;;;;;12.20;100.00;99941.45;270476;1269;23153;-88
2023/05/19 11:36:58;;;;;;;10.90;7.50;;;;;;;12.36;100.00;99941.84;272455;1267;22203;-90
2023/05/19 11:43:00;;;;;;;10.90;7.20;;;;;;;12.48;100.00;99942.62;271930;1266;22338;-89
2023/05/19 11:49:04;;;;;;;13.60;7.30;;;;;;;12.61;100.00;99945.67;272097;1267;24190;-89
2023/05/19 11:55:07;;;;;;;13.00;7.40;;;;;;;12.66;100.00;99942.62;270958;1266;22550;-89
2023/05/19 12:01:09;;;;;;;10.60;7.70;;;;;;;12.70;100.00;99946.14;270341;1270;22609;-88
2023/05/19 12:07:11;;;;;;;11.80;8.00;;;;;;;12.77;100.00;99949.56;270269;1266;22530;-89
2023/05/19 12:13:13;;;;;;;13.00;8.70;;;;;;;12.77;100.00;99951.22;272253;1267;22305;-89
2023/05/19 12:19:17;;;;;;;13.20;8.10;;;;;;;12.60;100.00;99948.50;271073;1267;22220;-89
2023/05/19 12:25:19;;;;;;;13.00;9.30;;;;;;;12.48;100.00;99946.86;263760;1267;10001919;-89
2023/05/19 12:31:22;;;;;;;13.30;8.90;;;;;;;12.38;100.00;99945.41;273090;1266;22634;-89
2023/05/19 12:37:28;;;;;;;11.40;7.60;;;;;;;12.34;100.00;99940.63;273904;1267;22323;-88
2023/05/19 12:43:32;;;;;;;9.00;6.90;;;;;;;12.32;100.00;99936.11;272103;1266;23683;-89
2023/05/19 12:49:33;;;;;;;10.60;7.50;;;;;;;12.28;100.00;99931.58;272609;1267;22180;-90
2023/05/19 12:55:42;;;;;;;10.90;7.60;;;;;;;12.30;100.00;99925.02;273883;1266;22346;-89
2023/05/19 13:01:43;;;;;;;10.30;6.90;;;;;;;12.30;100.00;99922.35;273550;1267;23162;-89
2023/05/19 13:08:04;;;;;;;15.50;9.20;;;;;;;12.27;100.00;99926.05;273063;1266;22714;-89
2023/05/19 13:14:05;;;;;;;15.30;10.60;;;;;;;12.26;100.00;99924.70;272574;1266;22260;-90
2023/05/19 13:20:07;;;;;;;17.70;10.60;;;;;;;12.23;100.00;99922.14;271712;1267;22321;-88
2023/05/19 13:26:11;;;;;;;14.80;10.30;;;;;;;12.24;100.00;99920.28;273908;1265;22418;-89
2023/05/19 13:32:12;;;;;;;14.80;9.30;;;;;;;12.28;100.00;99920.52;273880;1266;23099;-90
2023/05/19 13:38:15;;;;;;;14.30;9.30;;;;;;;12.30;100.00;99918.20;272848;1267;22333;-90
2023/05/19 13:44:19;;;;;;;12.00;8.00;;;;;;;12.31;100.00;99915.30;273363;1267;22551;-90
2023/05/19 13:50:46;;;;;;;12.80;9.20;;;;;;;12.31;100.00;99914.75;272424;1267;22219;-89
2023/05/19 13:56:47;;;;;;;13.20;9.70;;;;;;;12.27;100.00;99920.41;273919;1267;22575;-88
2023/05/19 14:02:49;;;;;;;15.20;10.00;;;;;;;12.23;100.00;99923.48;272157;1267;22502;-89
2023/05/19 14:08:51;;;;;;;12.90;9.80;;;;;;;12.22;100.00;99925.67;272114;1267;25313;-88
2023/05/19 14:14:52;;;;;;;13.50;8.90;;;;;;;12.24;100.00;99925.77;271998;1266;22381;-89
2023/05/19 14:20:53;;;;;;;14.90;9.50;;;;;;;12.24;100.00;99928.91;273521;1267;22794;-89
2023/05/19 14:26:55;;;;;;;14.70;9.60;;;;;;;12.24;100.00;99926.08;273754;1267;22464;-89
2023/05/19 14:33:25;;;;;;;14.90;10.30;;;;;;;12.21;100.00;99927.05;273896;1267;23006;-89
2023/05/19 14:39:28;;;;;;;14.10;9.90;;;;;;;12.20;100.00;99923.65;273332;1267;22557;-89
2023/05/19 14:45:29;;;;;;;15.30;11.30;;;;;;;12.16;100.00;99926.47;271326;1267;25268;-87
2023/05/19 14:51:31;;;;;;;13.70;10.70;;;;;;;12.10;100.00;99928.55;271306;1266;23456;-88
2023/05/19 14:57:32;;;;;;;14.20;9.80;;;;;;;12.03;100.00;99927.63;271888;1267;22468;-88
2023/05/19 15:03:59;;;;;;;14.60;10.10;;;;;;;12.00;100.00;99929.22;272689;1266;22676;-89
2023/05/19 15:10:32;;;;;;;;;;;;;;;;;;;;;
2023/05/19 15:16:33;;;;;;;19.20;10.30;;;;;;;11.90;100.00;99934.12;272214;1266;22538;-88
2023/05/19 15:22:37;;;;;;;17.70;12.10;;;;;;;11.83;100.00;99936.17;272324;1265;24333;-88
2023/05/19 15:36:15;;;;;;;26.00;16.20;;;;;;;11.75;100.00;99929.86;273960;1266;22556;-88
2023/05/19 15:42:28;;;;;;;25.40;16.40;;;;;;;11.71;100.00;99935.66;272229;1266;24205;-88
2023/05/19 15:49:20;;;;;;;22.20;13.90;;;;;;;11.72;100.00;99936.79;274149;1267;22993;-89
2023/05/19 15:55:21;;;;;;;17.60;11.70;;;;;;;11.72;100.00;99936.15;273050;1266;23540;-88
2023/05/19 16:01:22;;;;;;;18.40;11.60;;;;;;;11.70;100.00;99941.13;273251;1266;25291;-89
2023/05/19 16:07:24;;;;;;;18.10;11.40;;;;;;;11.71;100.00;99943.10;273697;1267;22519;-87
2023/05/19 16:13:25;;;;;;;19.20;12.30;;;;;;;11.65;100.00;99943.90;273574;1267;23679;-89
2023/05/19 16:19:27;;;;;;;18.10;11.70;;;;;;;11.59;100.00;99941.17;273148;1267;22376;-88
2023/05/19 16:26:20;;;;;;;18.80;13.00;;;;;;;11.55;100.00;99937.56;273171;1266;22300;-88
2023/05/19 16:32:22;;;;;;;16.00;11.10;;;;;;;11.51;100.00;99932.84;273290;1266;24390;-89
2023/05/19 16:38:23;;;;;;;20.30;12.90;;;;;;;11.49;100.00;99932.33;271469;1266;22952;-88
2023/05/19 16:44:25;;;;;;;20.90;13.60;;;;;;;11.46;100.00;99936.27;271301;1264;22549;-89
2023/05/19 16:50:26;;;;;;;23.40;14.90;;;;;;;11.41;100.00;99931.04;271270;1267;25260;-89
2023/05/19 17:04:51;;;;;;;21.40;15.10;;;;;;;11.26;100.00;99930.70;273834;1267;22518;-89
2023/05/19 17:10:53;;;;;;;18.90;13.90;;;;;;;11.24;100.00;99934.72;272370;1266;25376;-88
2023/05/19 17:16:56;;;;;;;23.20;14.30;;;;;;;11.24;100.00;99946.63;271862;1259;23873;-88
2023/05/19 17:23:04;;;;;;;18.60;13.20;;;;;;;11.25;100.00;99953.70;273293;1266;22876;-87
2023/05/19 17:29:06;;;;;;;28.40;17.00;;;;;;;11.24;100.00;99955.64;273772;1266;23627;-87
2023/05/19 17:35:07;;;;;;;24.30;16.60;;;;;;;11.22;100.00;99960.22;273638;1269;22265;-88
2023/05/19 17:41:08;;;;;;;33.20;20.00;;;;;;;11.22;100.00;99960.91;273801;1267;23085;-89
2023/05/19 17:47:10;;;;;;;26.50;17.80;;;;;;;11.21;100.00;99960.19;273172;1267;22319;-89
2023/05/19 17:53:37;;;;;;;24.30;17.30;;;;;;;11.20;100.00;99961.09;273693;1256;22251;-89
2023/05/19 17:59:39;;;;;;;25.40;16.00;;;;;;;11.18;100.00;99962.08;272980;1266;22307;-88
2023/05/19 18:05:43;;;;;;;21.40;15.60;;;;;;;11.14;100.00;99961.80;273728;1266;22342;-90
2023/05/19 18:11:44;;;;;;;24.80;15.80;;;;;;;11.11;100.00;99967.30;272629;1266;24395;-88
2023/05/19 18:18:11;;;;;;;24.50;15.60;;;;;;;11.08;100.00;99965.84;272722;1266;23246;-88
2023/05/19 18:24:38;;;;;;;22.70;14.80;;;;;;;11.06;100.00;99972.27;273853;1265;22345;-88
2023/05/19 18:30:40;;;;;;;21.00;15.30;;;;;;;11.03;100.00;99976.52;272889;1266;22595;-89
2023/05/19 18:36:42;;;;;;;22.50;14.90;;;;;;;11.01;100.00;99980.45;272346;1266;22973;-88
2023/05/19 18:42:46;;;;;;;21.60;14.10;;;;;;;10.98;100.00;99984.36;273402;1266;22718;-89
2023/05/19 18:49:14;;;;;;;29.00;16.00;;;;;;;10.98;100.00;99984.98;273553;1266;22530;-88
2023/05/19 18:55:16;;;;;;;21.70;15.60;;;;;;;10.99;100.00;99986.34;273275;1267;22444;-89
2023/05/19 19:01:17;;;;;;;24.30;16.40;;;;;;;10.97;100.00;99988.17;273351;1266;23222;-89
2023/05/19 19:07:20;;;;;;;21.50;15.00;;;;;;;10.97;100.00;99990.66;273907;1265;22333;-89
2023/05/19 19:13:22;;;;;;;21.00;14.50;;;;;;;10.97;100.00;99998.89;273360;1266;22532;-89
2023/05/19 19:19:23;;;;;;;25.40;17.40;;;;;;;10.97;100.00;99997.80;273097;1266;22203;-88
2023/05/19 19:25:25;;;;;;;23.30;16.00;;;;;;;10.94;100.00;100001.11;272162;1266;22293;-89
2023/05/19 19:31:29;;;;;;;22.80;16.60;;;;;;;10.92;100.00;100002.08;273123;1266;23770;-89
2023/05/19 19:37:33;;;;;;;;;;;;;;;10.92;100.00;100000.42;273090;1267;22666;-89
2023/05/19 19:44:18;;;;;;;26.50;19.00;;;;;;;10.91;100.00;100002.10;272754;1257;22573;-89
2023/05/19 19:51:08;;;;;;;25.10;17.30;;;;;;;10.89;100.00;100006.98;273881;1266;22201;-89
2023/05/19 19:57:15;;;;;;;26.10;17.80;;;;;;;10.88;100.00;100010.48;273637;1266;23659;-88
2023/05/19 20:03:17;;;;;;;24.10;17.30;;;;;;;10.87;100.00;100004.82;273761;1266;22408;-87
2023/05/19 20:09:18;;;;;;;25.90;17.70;;;;;;;10.85;100.00;100002.34;273463;1266;23836;-90
2023/05/19 20:15:20;;;;;;;25.70;16.80;;;;;;;10.83;100.00;99994.40;272292;1266;23675;-88
2023/05/19 20:21:22;;;;;;;27.30;18.40;;;;;;;10.82;100.00;99991.65;273572;1257;22335;-89
2023/05/19 20:27:24;;;;;;;32.10;18.30;;;;;;;10.80;100.00;99989.61;273999;1266;23487;-89
2023/05/19 20:33:27;;;;;;;26.50;17.90;;;;;;;10.77;100.00;99992.12;273046;1266;22169;-88
2023/05/19 20:39:29;;;;;;;26.70;17.80;;;;;;;10.76;100.00;99985.20;273301;1262;22163;-89
2023/05/19 20:46:02;;;;;;;29.10;18.60;;;;;;;10.75;100.00;99983.31;273440;1269;22295;-89
2023/05/19 20:52:04;;;;;;;29.20;19.20;;;;;;;10.71;100.00;99984.39;274012;1265;22524;-90
2023/05/19 20:58:05;;;;;;;29.90;19.90;;;;;;;10.68;100.00;99984.52;272607;1266;22247;-89
2023/05/19 21:04:07;;;;;;;30.50;20.70;;;;;;;10.65;100.00;99982.95;272351;1266;22556;-89
2023/05/19 21:10:08;;;;;;;30.00;21.60;;;;;;;10.63;100.00;99986.05;271877;1266;22628;-90
2023/05/19 21:16:09;;;;;;;32.50;20.60;;;;;;;10.62;100.00;99981.54;273148;1265;22317;-89
2023/05/19 21:22:11;;;;;;;31.90;21.00;;;;;;;10.60;100.00;99984.33;272427;1266;22691;-89
2023/05/19 21:28:12;;;;;;;29.40;20.80;;;;;;;10.59;100.00;99983.04;271136;1250;22536;-89
2023/05/19 21:34:13;;;;;;;37.60;21.10;;;;;;;10.57;100.00;99986.34;272151;1267;23340;-89
2023/05/19 21:40:17;;;;;;;39.80;22.70;;;;;;;10.53;100.00;99991.65;271319;1266;22538;-90
2023/05/19 21:46:25;;;;;;;38.00;24.30;;;;;;;10.51;100.00;99989.09;271112;1266;22575;-90
2023/05/19 21:52:27;;;;;;;39.50;24.30;;;;;;;10.48;100.00;99989.85;271596;1250;22530;-90
2023/05/19 21:58:36;;;;;;;42.70;24.90;;;;;;;10.49;100.00;99994.02;272091;1265;182073;-91
2023/05/19 22:04:40;;;;;;;41.70;22.80;;;;;;;10.49;100.00;99989.57;272092;1266;22824;-92
2023/05/19 22:10:41;;;;;;;44.10;26.60;;;;;;;10.48;100.00;99992.20;271584;1267;22576;-90
2023/05/19 22:16:43;;;;;;;53.00;29.30;;;;;;;10.45;100.00;99983.69;271803;1266;22524;-90
2023/05/19 22:22:51;;;;;;;60.60;31.00;;;;;;;10.44;100.00;99982.07;273712;1266;22531;-90
2023/05/19 22:28:54;;;;;;;53.60;30.50;;;;;;;10.42;100.00;99982.73;272906;1266;22196;-88
2023/05/19 22:35:00;;;;;;;52.00;29.80;;;;;;;10.42;100.00;99982.05;273678;1268;22339;-90
2023/05/19 22:41:01;;;;;;;58.50;32.10;;;;;;;10.43;100.00;99977.91;273613;1267;22289;-87
2023/05/19 22:47:03;;;;;;;63.30;32.50;;;;;;;10.41;100.00;99973.95;272118;1266;22743;-88
2023/05/19 22:53:04;;;;;;;58.80;32.00;;;;;;;10.36;100.00;99967.71;271927;1266;25364;-90
2023/05/19 22:59:09;;;;;;;65.90;32.90;;;;;;;10.32;100.00;99958.99;272296;1266;22867;-91
2023/05/19 23:05:11;;;;;;;64.10;31.40;;;;;;;10.28;100.00;99960.70;273106;1266;22281;-89
2023/05/19 23:11:15;;;;;;;76.60;34.20;;;;;;;10.24;100.00;99951.52;273221;1257;22305;-89
2023/05/19 23:17:16;;;;;;;73.10;35.60;;;;;;;10.23;100.00;99941.38;271364;1269;25486;-90
2023/05/19 23:23:18;;;;;;;69.80;34.20;;;;;;;10.20;100.00;99944.61;270923;1266;22544;-89
2023/05/19 23:29:19;;;;;;;68.20;32.20;;;;;;;10.21;100.00;99943.14;272981;1266;23892;-90
2023/05/19 23:35:20;;;;;;;65.10;30.60;;;;;;;10.21;100.00;99937.52;272387;1266;24169;-89
2023/05/19 23:41:47;;;;;;;54.70;27.90;;;;;;;10.22;100.00;99940.72;271397;1265;22264;-89
2023/05/19 23:47:51;;;;;;;46.90;23.90;;;;;;;10.18;100.00;99941.48;271272;1266;23359;-89
2023/05/19 23:53:53;;;;;;;37.70;21.20;;;;;;;10.15;100.00;99939.84;271869;1266;22573;-88
